sensor_id;sensor_type;location;lat;lon;timestamp;P1;durP1;ratioP1;P2;durP2;ratioP2
10440;SDS011;5268;49.346;9.522;2023-09-30T03:09:40;6.05;;;3.90;;
10440;SDS011;5268;49.346;9.522;2023-09-30T03:14:42;5.13;;;4.20;;
10440;SDS011;5268;49.346;9.522;2023-09-30T03:19:45;6.18;;;4.15;;
10440;SDS011;5268;49.346;9.522;2023-09-30T03:24:48;5.00;;;4.00;;
10440;SDS011;5268;49.346;9.522;2023-09-30T03:29:51;5.68;;;4.25;;
10440;SDS011;5268;49.346;9.522;2023-09-30T03:34:53;7.03;;;4.03;;
10440;SDS011;5268;49.346;9.522;2023-09-30T03:40:00;5.22;;;4.20;;
10440;SDS011;5268;49.346;9.522;2023-09-30T03:45:11;5.32;;;4.47;;
10440;SDS011;5268;49.346;9.522;2023-09-30T03:50:13;5.72;;;4.00;;
10440;SDS011;5268;49.346;9.522;2023-09-30T03:55:17;6.47;;;4.43;;
10440;SDS011;5268;49.346;9.522;2023-09-30T04:00:21;7.20;;;4.30;;
10440;SDS011;5268;49.346;9.522;2023-09-30T04:05:24;6.15;;;4.20;;
10440;SDS011;5268;49.346;9.522;2023-09-30T04:10:31;6.05;;;4.13;;
10440;SDS011;5268;49.346;9.522;2023-09-30T04:15:33;5.53;;;4.20;;
10440;SDS011;5268;49.346;9.522;2023-09-30T04:20:37;5.93;;;4.05;;
10440;SDS011;5268;49.346;9.522;2023-09-30T04:25:43;6.35;;;4.38;;
10440;SDS011;5268;49.346;9.522;2023-09-30T04:30:48;8.35;;;4.78;;
10440;SDS011;5268;49.346;9.522;2023-09-30T04:35:51;6.90;;;4.35;;
10440;SDS011;5268;49.346;9.522;2023-09-30T04:40:54;5.25;;;4.10;;
10440;SDS011;5268;49.346;9.522;2023-09-30T04:45:58;5.35;;;4.15;;
10440;SDS011;5268;49.346;9.522;2023-09-30T04:51:00;5.05;;;4.13;;
10440;SDS011;5268;49.346;9.522;2023-09-30T04:56:06;5.82;;;4.47;;
10440;SDS011;5268;49.346;9.522;2023-09-30T05:01:08;7.13;;;4.40;;
10440;SDS011;5268;49.346;9.522;2023-09-30T05:06:10;5.93;;;4.55;;
10440;SDS011;5268;49.346;9.522;2023-09-30T05:11:13;7.32;;;4.63;;
10440;SDS011;5268;49.346;9.522;2023-09-30T05:16:16;6.43;;;4.60;;
10440;SDS011;5268;49.346;9.522;2023-09-30T05:21:18;5.75;;;4.25;;
10440;SDS011;5268;49.346;9.522;2023-09-30T05:26:24;5.43;;;4.03;;
10440;SDS011;5268;49.346;9.522;2023-09-30T05:31:26;7.55;;;4.40;;
10440;SDS011;5268;49.346;9.522;2023-09-30T05:36:28;5.15;;;4.00;;
10440;SDS011;5268;49.346;9.522;2023-09-30T05:41:31;6.82;;;4.63;;
10440;SDS011;5268;49.346;9.522;2023-09-30T05:46:33;5.95;;;5.32;;
10440;SDS011;5268;49.346;9.522;2023-09-30T05:51:35;7.53;;;4.70;;
10440;SDS011;5268;49.346;9.522;2023-09-30T05:56:39;7.22;;;4.88;;
10440;SDS011;5268;49.346;9.522;2023-09-30T06:01:42;5.50;;;4.10;;
10440;SDS011;5268;49.346;9.522;2023-09-30T06:06:46;6.57;;;4.47;;
10440;SDS011;5268;49.346;9.522;2023-09-30T06:11:49;7.10;;;4.53;;
10440;SDS011;5268;49.346;9.522;2023-09-30T06:16:52;6.07;;;3.92;;
10440;SDS011;5268;49.346;9.522;2023-09-30T06:21:54;7.60;;;4.00;;
10440;SDS011;5268;49.346;9.522;2023-09-30T06:26:58;4.43;;;3.72;;
10440;SDS011;5268;49.346;9.522;2023-09-30T06:32:00;5.90;;;4.30;;
10440;SDS011;5268;49.346;9.522;2023-09-30T06:37:02;5.25;;;4.07;;
10440;SDS011;5268;49.346;9.522;2023-09-30T06:42:05;6.75;;;4.53;;
10440;SDS011;5268;49.346;9.522;2023-09-30T06:47:07;8.00;;;4.45;;
10440;SDS011;5268;49.346;9.522;2023-09-30T06:52:12;13.85;;;4.60;;
10440;SDS011;5268;49.346;9.522;2023-09-30T06:57:15;6.88;;;4.18;;
10440;SDS011;5268;49.346;9.522;2023-09-30T07:02:17;7.55;;;4.25;;
10440;SDS011;5268;49.346;9.522;2023-09-30T07:07:20;5.60;;;4.28;;
10440;SDS011;5268;49.346;9.522;2023-09-30T07:12:23;8.05;;;4.35;;
10440;SDS011;5268;49.346;9.522;2023-09-30T07:17:25;8.20;;;4.50;;
10440;SDS011;5268;49.346;9.522;2023-09-30T07:22:27;5.47;;;4.60;;
10440;SDS011;5268;49.346;9.522;2023-09-30T07:27:30;7.78;;;4.65;;
10440;SDS011;5268;49.346;9.522;2023-09-30T07:32:33;7.38;;;5.15;;
10440;SDS011;5268;49.346;9.522;2023-09-30T07:37:35;6.80;;;4.85;;
10440;SDS011;5268;49.346;9.522;2023-09-30T07:42:39;7.85;;;4.85;;
10440;SDS011;5268;49.346;9.522;2023-09-30T07:47:41;10.02;;;5.18;;
10440;SDS011;5268;49.346;9.522;2023-09-30T07:52:44;6.80;;;5.03;;
10440;SDS011;5268;49.346;9.522;2023-09-30T07:57:48;6.47;;;4.50;;
10440;SDS011;5268;49.346;9.522;2023-09-30T08:02:50;6.93;;;4.90;;
10440;SDS011;5268;49.346;9.522;2023-09-30T08:07:52;8.90;;;5.63;;
10440;SDS011;5268;49.346;9.522;2023-09-30T08:12:55;8.85;;;5.05;;
10440;SDS011;5268;49.346;9.522;2023-09-30T08:17:58;8.65;;;5.55;;
10440;SDS011;5268;49.346;9.522;2023-09-30T08:23:01;8.68;;;5.15;;
10440;SDS011;5268;49.346;9.522;2023-09-30T08:28:05;9.00;;;5.45;;
10440;SDS011;5268;49.346;9.522;2023-09-30T08:33:09;8.85;;;5.68;;
10440;SDS011;5268;49.346;9.522;2023-09-30T08:38:11;11.27;;;5.88;;
10440;SDS011;5268;49.346;9.522;2023-09-30T08:43:14;7.82;;;5.30;;
10440;SDS011;5268;49.346;9.522;2023-09-30T08:48:19;7.25;;;4.97;;
10440;SDS011;5268;49.346;9.522;2023-09-30T08:53:23;7.43;;;5.00;;
10440;SDS011;5268;49.346;9.522;2023-09-30T08:58:28;8.63;;;5.35;;
10440;SDS011;5268;49.346;9.522;2023-09-30T09:03:30;8.93;;;5.28;;
10440;SDS011;5268;49.346;9.522;2023-09-30T09:08:32;8.88;;;4.97;;
10440;SDS011;5268;49.346;9.522;2023-09-30T09:13:46;6.53;;;4.63;;
10440;SDS011;5268;49.346;9.522;2023-09-30T09:18:50;7.55;;;4.53;;
10440;SDS011;5268;49.346;9.522;2023-09-30T09:23:53;8.80;;;4.50;;
10440;SDS011;5268;49.346;9.522;2023-09-30T09:28:57;6.95;;;4.20;;
10440;SDS011;5268;49.346;9.522;2023-09-30T09:34:00;6.95;;;3.78;;
10440;SDS011;5268;49.346;9.522;2023-09-30T09:39:03;6.68;;;3.97;;
10440;SDS011;5268;49.346;9.522;2023-09-30T09:44:06;8.75;;;3.90;;
10440;SDS011;5268;49.346;9.522;2023-09-30T09:49:10;8.30;;;3.92;;
10440;SDS011;5268;49.346;9.522;2023-09-30T09:54:13;5.80;;;4.03;;
10440;SDS011;5268;49.346;9.522;2023-09-30T09:59:18;7.97;;;3.90;;
10440;SDS011;5268;49.346;9.522;2023-09-30T10:04:20;6.18;;;4.00;;
10440;SDS011;5268;49.346;9.522;2023-09-30T10:09:22;5.15;;;3.42;;
10440;SDS011;5268;49.346;9.522;2023-09-30T10:14:33;5.78;;;3.47;;
10440;SDS011;5268;49.346;9.522;2023-09-30T10:19:36;6.70;;;3.65;;
10440;SDS011;5268;49.346;9.522;2023-09-30T10:24:59;5.38;;;3.55;;
10440;SDS011;5268;49.346;9.522;2023-09-30T10:30:10;5.93;;;3.75;;
10440;SDS011;5268;49.346;9.522;2023-09-30T10:35:14;7.53;;;4.25;;
10440;SDS011;5268;49.346;9.522;2023-09-30T10:40:25;7.68;;;4.00;;
10440;SDS011;5268;49.346;9.522;2023-09-30T10:45:45;6.47;;;3.58;;
10440;SDS011;5268;49.346;9.522;2023-09-30T10:50:49;6.47;;;4.28;;
10440;SDS011;5268;49.346;9.522;2023-09-30T10:55:54;9.00;;;4.35;;
10440;SDS011;5268;49.346;9.522;2023-09-30T11:00:58;7.13;;;4.40;;
10440;SDS011;5268;49.346;9.522;2023-09-30T11:06:00;6.88;;;4.45;;
10440;SDS011;5268;49.346;9.522;2023-09-30T11:11:04;8.25;;;4.50;;
10440;SDS011;5268;49.346;9.522;2023-09-30T11:16:07;7.50;;;4.63;;
10440;SDS011;5268;49.346;9.522;2023-09-30T11:21:10;8.82;;;4.60;;
10440;SDS011;5268;49.346;9.522;2023-09-30T11:26:13;8.70;;;4.50;;
10440;SDS011;5268;49.346;9.522;2023-09-30T11:31:16;7.93;;;4.60;;
10440;SDS011;5268;49.346;9.522;2023-09-30T11:36:19;8.80;;;4.95;;
10440;SDS011;5268;49.346;9.522;2023-09-30T11:41:21;9.25;;;4.95;;
10440;SDS011;5268;49.346;9.522;2023-09-30T11:46:25;8.25;;;5.13;;
10440;SDS011;5268;49.346;9.522;2023-09-30T11:51:28;9.95;;;4.65;;
10440;SDS011;5268;49.346;9.522;2023-09-30T11:56:31;7.88;;;4.32;;
10440;SDS011;5268;49.346;9.522;2023-09-30T12:01:35;7.72;;;4.95;;
10440;SDS011;5268;49.346;9.522;2023-09-30T12:06:38;8.65;;;4.82;;
10440;SDS011;5268;49.346;9.522;2023-09-30T12:11:40;7.57;;;4.40;;
10440;SDS011;5268;49.346;9.522;2023-09-30T12:16:45;8.15;;;4.82;;
10440;SDS011;5268;49.346;9.522;2023-09-30T12:21:47;8.18;;;4.30;;
10440;SDS011;5268;49.346;9.522;2023-09-30T12:26:50;8.73;;;4.75;;
10440;SDS011;5268;49.346;9.522;2023-09-30T12:31:54;8.93;;;4.90;;
10440;SDS011;5268;49.346;9.522;2023-09-30T12:36:56;6.88;;;4.32;;
10440;SDS011;5268;49.346;9.522;2023-09-30T12:41:58;9.48;;;4.82;;
10440;SDS011;5268;49.346;9.522;2023-09-30T12:47:01;8.73;;;5.13;;
10440;SDS011;5268;49.346;9.522;2023-09-30T12:52:05;10.35;;;5.10;;
10440;SDS011;5268;49.346;9.522;2023-09-30T12:57:07;8.38;;;4.85;;
10440;SDS011;5268;49.346;9.522;2023-09-30T13:02:14;10.90;;;5.20;;
10440;SDS011;5268;49.346;9.522;2023-09-30T13:07:18;10.20;;;5.68;;
10440;SDS011;5268;49.346;9.522;2023-09-30T13:12:20;9.30;;;5.55;;
10440;SDS011;5268;49.346;9.522;2023-09-30T13:17:23;7.53;;;5.38;;
10440;SDS011;5268;49.346;9.522;2023-09-30T13:22:25;8.15;;;5.18;;
10440;SDS011;5268;49.346;9.522;2023-09-30T13:27:27;9.10;;;5.10;;
10440;SDS011;5268;49.346;9.522;2023-09-30T13:32:31;9.30;;;5.00;;
10440;SDS011;5268;49.346;9.522;2023-09-30T13:37:35;9.30;;;5.10;;
10440;SDS011;5268;49.346;9.522;2023-09-30T13:42:37;9.30;;;5.45;;
10440;SDS011;5268;49.346;9.522;2023-09-30T13:47:41;9.38;;;5.15;;
10440;SDS011;5268;49.346;9.522;2023-09-30T13:52:43;12.43;;;5.38;;
10440;SDS011;5268;49.346;9.522;2023-09-30T13:57:45;10.40;;;5.78;;
10440;SDS011;5268;49.346;9.522;2023-09-30T14:02:49;11.68;;;5.60;;
10440;SDS011;5268;49.346;9.522;2023-09-30T14:07:51;9.05;;;5.30;;
10440;SDS011;5268;49.346;9.522;2023-09-30T14:12:53;12.60;;;5.38;;
10440;SDS011;5268;49.346;9.522;2023-09-30T14:17:56;8.30;;;5.00;;
10440;SDS011;5268;49.346;9.522;2023-09-30T14:22:59;8.50;;;5.55;;
10440;SDS011;5268;49.346;9.522;2023-09-30T14:28:02;8.98;;;5.20;;
10440;SDS011;5268;49.346;9.522;2023-09-30T14:33:05;8.65;;;5.25;;
10440;SDS011;5268;49.346;9.522;2023-09-30T14:38:07;10.40;;;5.97;;
10440;SDS011;5268;49.346;9.522;2023-09-30T14:43:11;8.75;;;5.18;;
10440;SDS011;5268;49.346;9.522;2023-09-30T14:48:15;8.63;;;5.13;;
10440;SDS011;5268;49.346;9.522;2023-09-30T14:53:17;9.95;;;5.15;;
10440;SDS011;5268;49.346;9.522;2023-09-30T14:58:19;8.95;;;5.20;;
10440;SDS011;5268;49.346;9.522;2023-09-30T15:03:25;9.85;;;5.15;;
10440;SDS011;5268;49.346;9.522;2023-09-30T15:08:27;10.80;;;5.75;;
10440;SDS011;5268;49.346;9.522;2023-09-30T15:13:29;9.40;;;5.20;;
10440;SDS011;5268;49.346;9.522;2023-09-30T15:18:33;8.43;;;5.13;;
10440;SDS011;5268;49.346;9.522;2023-09-30T15:23:35;9.82;;;5.50;;
10440;SDS011;5268;49.346;9.522;2023-09-30T15:28:37;8.38;;;5.22;;
10440;SDS011;5268;49.346;9.522;2023-09-30T15:33:40;9.80;;;5.15;;
10440;SDS011;5268;49.346;9.522;2023-09-30T15:38:43;11.50;;;5.82;;
10440;SDS011;5268;49.346;9.522;2023-09-30T15:43:45;7.63;;;5.05;;
10440;SDS011;5268;49.346;9.522;2023-09-30T15:48:49;9.82;;;5.75;;
10440;SDS011;5268;49.346;9.522;2023-09-30T15:53:51;8.77;;;5.10;;
10440;SDS011;5268;49.346;9.522;2023-09-30T15:58:52;8.70;;;5.43;;
10440;SDS011;5268;49.346;9.522;2023-09-30T16:03:56;8.35;;;5.15;;
10440;SDS011;5268;49.346;9.522;2023-09-30T16:08:58;9.80;;;5.30;;
10440;SDS011;5268;49.346;9.522;2023-09-30T16:14:00;9.98;;;5.30;;
10440;SDS011;5268;49.346;9.522;2023-09-30T16:19:05;8.10;;;5.28;;
10440;SDS011;5268;49.346;9.522;2023-09-30T16:24:07;9.43;;;5.40;;
10440;SDS011;5268;49.346;9.522;2023-09-30T16:29:09;9.10;;;5.70;;
10440;SDS011;5268;49.346;9.522;2023-09-30T16:34:12;8.05;;;5.13;;
10440;SDS011;5268;49.346;9.522;2023-09-30T16:39:14;9.90;;;5.50;;
10440;SDS011;5268;49.346;9.522;2023-09-30T16:44:16;11.55;;;5.68;;
10440;SDS011;5268;49.346;9.522;2023-09-30T16:49:21;10.45;;;5.57;;
10440;SDS011;5268;49.346;9.522;2023-09-30T16:54:23;10.05;;;5.35;;
10440;SDS011;5268;49.346;9.522;2023-09-30T16:59:25;13.73;;;7.53;;
10440;SDS011;5268;49.346;9.522;2023-09-30T17:04:28;9.95;;;6.00;;
10440;SDS011;5268;49.346;9.522;2023-09-30T17:09:30;8.15;;;5.25;;
10440;SDS011;5268;49.346;9.522;2023-09-30T17:14:32;9.65;;;5.50;;
10440;SDS011;5268;49.346;9.522;2023-09-30T17:19:36;11.93;;;5.65;;
10440;SDS011;5268;49.346;9.522;2023-09-30T17:24:40;12.32;;;5.28;;
10440;SDS011;5268;49.346;9.522;2023-09-30T17:29:43;9.27;;;5.20;;
10440;SDS011;5268;49.346;9.522;2023-09-30T17:34:47;10.98;;;5.50;;
10440;SDS011;5268;49.346;9.522;2023-09-30T17:39:51;9.52;;;5.45;;
10440;SDS011;5268;49.346;9.522;2023-09-30T17:44:53;10.35;;;5.63;;
10440;SDS011;5268;49.346;9.522;2023-09-30T17:49:57;8.70;;;5.53;;
10440;SDS011;5268;49.346;9.522;2023-09-30T17:54:59;11.35;;;6.05;;
10440;SDS011;5268;49.346;9.522;2023-09-30T18:00:01;10.15;;;5.45;;
10440;SDS011;5268;49.346;9.522;2023-09-30T18:05:06;8.60;;;5.22;;
10440;SDS011;5268;49.346;9.522;2023-09-30T18:10:09;9.82;;;5.43;;
10440;SDS011;5268;49.346;9.522;2023-09-30T18:15:12;11.18;;;6.03;;
10440;SDS011;5268;49.346;9.522;2023-09-30T18:20:15;11.02;;;5.72;;
10440;SDS011;5268;49.346;9.522;2023-09-30T18:25:19;8.68;;;5.45;;
10440;SDS011;5268;49.346;9.522;2023-09-30T18:30:22;8.77;;;5.50;;
10440;SDS011;5268;49.346;9.522;2023-09-30T18:35:26;11.07;;;5.50;;
10440;SDS011;5268;49.346;9.522;2023-09-30T18:40:28;10.95;;;5.63;;
10440;SDS011;5268;49.346;9.522;2023-09-30T18:45:31;8.75;;;5.53;;
10440;SDS011;5268;49.346;9.522;2023-09-30T18:50:39;10.48;;;5.90;;
10440;SDS011;5268;49.346;9.522;2023-09-30T18:55:42;9.60;;;5.57;;
10440;SDS011;5268;49.346;9.522;2023-09-30T19:00:45;10.23;;;5.78;;
10440;SDS011;5268;49.346;9.522;2023-09-30T19:05:49;11.10;;;7.43;;
10440;SDS011;5268;49.346;9.522;2023-09-30T19:10:54;8.52;;;5.65;;
10440;SDS011;5268;49.346;9.522;2023-09-30T19:15:56;10.35;;;5.38;;
10440;SDS011;5268;49.346;9.522;2023-09-30T19:21:00;10.93;;;6.00;;
10440;SDS011;5268;49.346;9.522;2023-09-30T19:26:02;10.63;;;5.55;;
10440;SDS011;5268;49.346;9.522;2023-09-30T19:31:04;8.32;;;4.78;;
10440;SDS011;5268;49.346;9.522;2023-09-30T19:36:10;10.10;;;5.68;;
10440;SDS011;5268;49.346;9.522;2023-09-30T19:41:13;12.25;;;5.53;;
10440;SDS011;5268;49.346;9.522;2023-09-30T19:46:17;18.15;;;10.73;;
10440;SDS011;5268;49.346;9.522;2023-09-30T19:51:24;12.68;;;7.60;;
10440;SDS011;5268;49.346;9.522;2023-09-30T19:56:26;11.93;;;8.10;;
10440;SDS011;5268;49.346;9.522;2023-09-30T20:01:28;13.27;;;7.40;;
10440;SDS011;5268;49.346;9.522;2023-09-30T20:06:32;11.63;;;6.75;;
10440;SDS011;5268;49.346;9.522;2023-09-30T20:11:36;11.57;;;6.63;;
10440;SDS011;5268;49.346;9.522;2023-09-30T20:16:38;9.60;;;6.70;;
10440;SDS011;5268;49.346;9.522;2023-09-30T20:21:42;10.57;;;6.15;;
10440;SDS011;5268;49.346;9.522;2023-09-30T20:26:44;12.07;;;6.80;;
10440;SDS011;5268;49.346;9.522;2023-09-30T20:31:46;13.80;;;7.10;;
10440;SDS011;5268;49.346;9.522;2023-09-30T20:36:49;13.80;;;6.65;;
10440;SDS011;5268;49.346;9.522;2023-09-30T20:41:52;11.30;;;6.50;;
10440;SDS011;5268;49.346;9.522;2023-09-30T20:46:54;10.75;;;6.28;;
10440;SDS011;5268;49.346;9.522;2023-09-30T20:51:57;9.68;;;6.35;;
10440;SDS011;5268;49.346;9.522;2023-09-30T20:57:00;10.27;;;6.53;;
10440;SDS011;5268;49.346;9.522;2023-09-30T21:02:02;11.13;;;6.10;;
10440;SDS011;5268;49.346;9.522;2023-09-30T21:07:06;8.32;;;5.55;;
10440;SDS011;5268;49.346;9.522;2023-09-30T21:12:07;10.13;;;5.60;;
10440;SDS011;5268;49.346;9.522;2023-09-30T21:17:13;9.75;;;5.22;;
10440;SDS011;5268;49.346;9.522;2023-09-30T21:22:16;9.85;;;6.18;;
10440;SDS011;5268;49.346;9.522;2023-09-30T21:27:19;10.77;;;5.70;;
10440;SDS011;5268;49.346;9.522;2023-09-30T21:32:22;9.52;;;6.05;;
10440;SDS011;5268;49.346;9.522;2023-09-30T21:37:25;10.20;;;5.93;;
10440;SDS011;5268;49.346;9.522;2023-09-30T21:42:30;12.13;;;5.90;;
10440;SDS011;5268;49.346;9.522;2023-09-30T21:47:32;12.40;;;6.70;;
10440;SDS011;5268;49.346;9.522;2023-09-30T21:52:36;13.15;;;6.65;;
